首页
METAR-TAF:

METAR-TAF

机场 :

Jim Hogg County Airport

Hebbronville, 得克萨斯州, 美国

纬度: 27-20N, 经度: 098-44W, 海拔: 202米

当前天气观测

该预报发布于27分钟前的11:15 UTC
风速6节,风向北转东北
温度 24°C
湿度 94%
气压 1009 hPa
能見度: 8.0公里
多云层高于700英尺
多云层高于1000英尺
阴天层高于1700英尺

METAR: KHBV 191115Z AUTO 03006KT 5SM RA BKN007 BKN010 OVC017 24/23 A2980 RMK AO2 T02420233

时间: 06:42 (11:42 UTC)


TAF: 丢失

超过4000个机场的气象观测和天气预报(METAR&TAF报告)。

可查询的气象台以黄色和红色小点在地图上表示。

将鼠标移到小点上方,可查看气象台名称。

然后点击查看天气观测和预报。

如需切换地图:点击带黑十字的绿色按钮放大地图;点击带横线的绿色按钮缩小地图;或者点击绿色箭头查看邻近地区的地图。


METAR-TAF: